KABR/ABR METAR and TAF weather

Enter ICAO airport designator
Station Type Date Time Source
KABR METAR 2022/12/05 14:53 UTC NOAA

KABR 051453Z AUTO 33010KT 10SM OVC080 M04/M08 A2994 RMK AO2 SLP155 T10391078 53018


Station Type Date Time Source
KABR Decoded METAR 2022/12/05 14:53 UTC NOAA

ABERDEEN REGIONAL AIRPORT, SD, United States (KABR) 45-27N 098-25W 400M
Dec 05, 2022 - 09:53 AM EST / 2022.12.05 1453 UTC
Wind: from the NNW (330 degrees) at 12 MPH (10 KT):0
Visibility: 10 mile(s):0
Sky conditions: overcast
Temperature: 25.0 F (-3.9 C)
Windchill: 14 F (-10 C):1
Dew Point: 18.0 F (-7.8 C)
Relative Humidity: 74%
Pressure (altimeter): 29.94 in. Hg (1013 hPa)
Pressure tendency: 0.05 inches (1.8 hPa) higher than three hours ago
ob: KABR 051453Z AUTO 33010KT 10SM OVC080 M04/M08 A2994 RMK AO2 SLP155 T10391078 53018
cycle: 15

Station Type Date Time Source
KABR TAF 2022/12/05 12:22 UTC NOAA

TAF KABR 051120Z 0512/0612 33005KT P6SM OVC100
FM051600 33011G17KT P6SM OVC090
FM060200 06005KT P6SM BKN070
FM060900 15010G16KT P6SM BKN060

Example: see airport list